createdAt,value
2023-05-10T00:00:17.920Z,421.00
2023-05-10T00:01:17.737Z,422.00
2023-05-10T00:02:17.867Z,424.00
2023-05-10T00:03:17.911Z,423.00
2023-05-10T00:04:17.954Z,426.00
2023-05-10T00:05:17.936Z,424.00
2023-05-10T00:06:18.007Z,423.00
2023-05-10T00:07:18.001Z,423.00
2023-05-10T00:08:18.100Z,421.00
2023-05-10T00:09:18.171Z,420.00
2023-05-10T00:10:18.339Z,420.00
2023-05-10T00:11:18.233Z,418.00
2023-05-10T00:12:18.294Z,420.00
2023-05-10T00:13:18.394Z,419.00
2023-05-10T00:14:18.401Z,420.00
2023-05-10T00:15:18.441Z,418.00
2023-05-10T00:16:18.512Z,418.00
2023-05-10T00:17:18.592Z,418.00
2023-05-10T00:18:18.597Z,418.00
2023-05-10T00:19:18.638Z,418.00
2023-05-10T00:20:18.927Z,421.00
2023-05-10T00:21:18.755Z,420.00
2023-05-10T00:22:18.862Z,420.00
2023-05-10T00:23:18.924Z,420.00
2023-05-10T00:24:18.939Z,419.00
2023-05-10T00:25:19.005Z,420.00
2023-05-10T00:26:19.037Z,420.00
2023-05-10T00:27:19.110Z,418.00
2023-05-10T00:28:19.149Z,418.00
2023-05-10T00:29:19.216Z,419.00
2023-05-10T00:30:19.450Z,420.00
2023-05-10T00:31:19.398Z,419.00
2023-05-10T00:32:19.450Z,419.00
2023-05-10T00:33:19.457Z,419.00
2023-05-10T00:34:19.521Z,420.00
2023-05-10T00:35:19.574Z,418.00
2023-05-10T00:36:19.619Z,420.00
2023-05-10T00:37:19.702Z,419.00
2023-05-10T00:38:19.744Z,420.00
2023-05-10T00:39:19.771Z,420.00
2023-05-10T00:40:19.863Z,421.00
2023-05-10T00:41:19.889Z,421.00
2023-05-10T00:42:19.922Z,421.00
2023-05-10T00:43:20.007Z,420.00
2023-05-10T00:44:20.040Z,419.00
2023-05-10T00:45:20.134Z,420.00
2023-05-10T00:46:20.238Z,419.00
2023-05-10T00:47:20.251Z,419.00
2023-05-10T00:48:20.287Z,418.00
2023-05-10T00:49:20.363Z,419.00
2023-05-10T00:50:20.411Z,417.00
2023-05-10T00:51:20.476Z,418.00
2023-05-10T00:52:20.515Z,416.00
2023-05-10T00:53:20.564Z,417.00
2023-05-10T00:54:20.628Z,416.00
2023-05-10T00:55:20.697Z,416.00
2023-05-10T00:56:20.750Z,413.00
2023-05-10T00:57:20.807Z,412.00
2023-05-10T00:58:20.855Z,410.00
2023-05-10T00:59:20.924Z,410.00
2023-05-10T01:00:21.011Z,409.00
2023-05-10T01:01:21.091Z,409.00
2023-05-10T01:02:21.193Z,411.00
2023-05-10T01:03:21.256Z,411.00
2023-05-10T01:04:21.208Z,412.00
2023-05-10T01:05:21.384Z,414.00
2023-05-10T01:06:21.366Z,414.00
2023-05-10T01:07:21.436Z,413.00
2023-05-10T01:08:21.483Z,413.00
2023-05-10T01:09:21.524Z,414.00
2023-05-10T01:10:21.604Z,415.00
2023-05-10T01:11:21.668Z,415.00
2023-05-10T01:12:21.788Z,413.00
2023-05-10T01:13:21.813Z,413.00
2023-05-10T01:14:21.893Z,413.00
2023-05-10T01:15:21.958Z,413.00
2023-05-10T01:16:22.064Z,413.00
2023-05-10T01:17:22.085Z,412.00
2023-05-10T01:18:22.131Z,412.00
2023-05-10T01:19:22.171Z,411.00
2023-05-10T01:20:22.247Z,408.00
2023-05-10T01:21:22.246Z,409.00
2023-05-10T01:22:22.349Z,412.00
2023-05-10T01:23:22.430Z,411.00
2023-05-10T01:24:22.470Z,411.00
2023-05-10T01:25:22.532Z,411.00
2023-05-10T01:26:22.598Z,410.00
2023-05-10T01:27:22.640Z,410.00
2023-05-10T01:28:22.726Z,411.00
2023-05-10T01:29:22.770Z,410.00
2023-05-10T01:30:22.867Z,411.00
2023-05-10T01:31:22.941Z,413.00
2023-05-10T01:32:22.987Z,413.00
2023-05-10T01:33:23.026Z,413.00
2023-05-10T01:34:23.065Z,411.00
2023-05-10T01:35:23.140Z,410.00
2023-05-10T01:36:23.161Z,411.00
2023-05-10T01:37:23.254Z,411.00
2023-05-10T01:38:23.296Z,411.00
2023-05-10T01:39:23.374Z,411.00
2023-05-10T01:40:23.444Z,412.00
2023-05-10T01:41:23.474Z,413.00
2023-05-10T01:42:23.512Z,413.00
2023-05-10T01:43:23.626Z,414.00
2023-05-10T01:44:23.682Z,414.00
2023-05-10T01:45:23.720Z,414.00
2023-05-10T01:46:23.922Z,413.00
2023-05-10T01:47:23.809Z,410.00
2023-05-10T01:48:23.894Z,411.00
2023-05-10T01:49:23.969Z,411.00
2023-05-10T01:50:24.013Z,410.00
2023-05-10T01:51:24.090Z,409.00
2023-05-10T01:52:24.139Z,410.00
2023-05-10T01:53:24.199Z,411.00
2023-05-10T01:54:24.309Z,410.00
2023-05-10T01:55:24.361Z,410.00
2023-05-10T01:56:24.421Z,411.00
2023-05-10T01:57:24.430Z,412.00
2023-05-10T01:58:24.520Z,412.00
2023-05-10T01:59:24.554Z,413.00
2023-05-10T02:00:24.657Z,411.00
2023-05-10T02:01:24.684Z,411.00
2023-05-10T02:02:24.797Z,411.00
2023-05-10T02:03:24.847Z,413.00
2023-05-10T02:04:24.896Z,413.00
2023-05-10T02:05:24.946Z,411.00
2023-05-10T02:06:24.984Z,412.00
2023-05-10T02:07:25.024Z,412.00
2023-05-10T02:08:25.138Z,412.00
2023-05-10T02:09:25.184Z,413.00
2023-05-10T02:10:25.209Z,413.00
2023-05-10T02:11:25.295Z,414.00
2023-05-10T02:12:25.372Z,415.00
2023-05-10T02:13:25.548Z,414.00
2023-05-10T02:14:25.502Z,415.00
2023-05-10T02:15:25.538Z,418.00
2023-05-10T02:16:25.620Z,419.00
2023-05-10T02:17:25.682Z,418.00
2023-05-10T02:18:25.705Z,415.00
2023-05-10T02:19:25.746Z,414.00
2023-05-10T02:20:25.839Z,415.00
2023-05-10T02:21:25.854Z,413.00
2023-05-10T02:22:25.878Z,413.00
2023-05-10T02:23:25.918Z,412.00
2023-05-10T02:24:25.952Z,411.00
2023-05-10T02:25:26.013Z,412.00
2023-05-10T02:26:26.076Z,413.00
2023-05-10T02:27:26.122Z,414.00
2023-05-10T02:28:26.175Z,413.00
2023-05-10T02:29:26.223Z,414.00
2023-05-10T02:30:26.244Z,413.00
2023-05-10T02:31:26.334Z,414.00
2023-05-10T02:32:26.388Z,415.00
2023-05-10T02:33:26.428Z,417.00
2023-05-10T02:34:26.492Z,416.00
2023-05-10T02:35:26.511Z,417.00
2023-05-10T02:36:26.579Z,416.00
2023-05-10T02:37:26.647Z,416.00
2023-05-10T02:38:26.734Z,417.00
2023-05-10T02:39:26.705Z,417.00
2023-05-10T02:40:28.678Z,415.00
2023-05-10T02:41:26.797Z,414.00
2023-05-10T02:42:26.877Z,417.00
2023-05-10T02:43:26.891Z,421.00
2023-05-10T02:44:26.908Z,417.00
2023-05-10T02:45:26.970Z,417.00
2023-05-10T02:46:27.008Z,417.00
2023-05-10T02:47:27.034Z,415.00
2023-05-10T02:48:27.081Z,416.00
2023-05-10T02:49:27.094Z,415.00
2023-05-10T02:50:27.148Z,416.00
2023-05-10T02:51:27.192Z,415.00
2023-05-10T02:52:27.211Z,413.00
2023-05-10T02:53:27.239Z,413.00
2023-05-10T02:54:27.280Z,414.00
2023-05-10T02:55:27.327Z,414.00
2023-05-10T02:56:27.378Z,412.00
2023-05-10T02:57:27.461Z,413.00
2023-05-10T02:58:27.468Z,413.00
2023-05-10T02:59:27.520Z,411.00
2023-05-10T03:00:27.526Z,410.00
2023-05-10T03:01:27.671Z,410.00
2023-05-10T03:02:27.682Z,409.00
2023-05-10T03:03:27.720Z,407.00
2023-05-10T03:04:27.783Z,407.00
2023-05-10T03:05:27.779Z,407.00
2023-05-10T03:06:27.819Z,408.00
2023-05-10T03:07:27.835Z,409.00
2023-05-10T03:08:27.870Z,409.00
2023-05-10T03:09:27.869Z,410.00
2023-05-10T03:10:27.948Z,409.00
2023-05-10T03:11:27.909Z,409.00
2023-05-10T03:12:27.966Z,411.00
2023-05-10T03:13:28.110Z,412.00
2023-05-10T03:14:28.172Z,412.00
2023-05-10T03:15:28.048Z,413.00
2023-05-10T03:16:28.258Z,412.00
2023-05-10T03:17:28.127Z,412.00
2023-05-10T03:18:28.165Z,412.00
2023-05-10T03:19:28.145Z,412.00
2023-05-10T03:20:28.197Z,413.00
2023-05-10T03:21:28.307Z,413.00
2023-05-10T03:22:28.274Z,412.00
2023-05-10T03:23:28.311Z,410.00
2023-05-10T03:24:28.359Z,409.00
2023-05-10T03:25:28.390Z,410.00
2023-05-10T03:26:28.428Z,410.00
2023-05-10T03:27:28.468Z,410.00
2023-05-10T03:28:28.498Z,409.00
2023-05-10T03:29:28.543Z,410.00
2023-05-10T03:30:28.567Z,410.00
2023-05-10T03:31:28.646Z,410.00
2023-05-10T03:32:28.598Z,410.00
2023-05-10T03:33:28.622Z,411.00
2023-05-10T03:34:28.688Z,414.00
2023-05-10T03:35:28.691Z,414.00
2023-05-10T03:36:28.741Z,413.00
2023-05-10T03:37:28.755Z,412.00
2023-05-10T03:38:30.373Z,412.00
2023-05-10T03:39:28.800Z,411.00
2023-05-10T03:40:28.823Z,408.00
2023-05-10T03:41:28.831Z,408.00
2023-05-10T03:42:28.830Z,407.00
2023-05-10T03:43:28.860Z,409.00
2023-05-10T03:44:28.870Z,409.00
2023-05-10T03:45:28.920Z,408.00
2023-05-10T03:46:29.047Z,407.00
2023-05-10T03:47:28.912Z,406.00
2023-05-10T03:48:28.922Z,407.00
2023-05-10T03:49:28.972Z,404.00
2023-05-10T03:50:28.974Z,406.00
2023-05-10T03:51:28.974Z,406.00
2023-05-10T03:52:29.010Z,407.00
2023-05-10T03:53:29.012Z,406.00
2023-05-10T03:54:29.054Z,406.00
2023-05-10T03:55:29.048Z,406.00
2023-05-10T03:56:29.072Z,408.00
2023-05-10T03:57:29.092Z,409.00
2023-05-10T03:58:29.152Z,411.00
2023-05-10T03:59:29.175Z,411.00
2023-05-10T04:00:29.179Z,411.00
2023-05-10T04:01:29.238Z,411.00
2023-05-10T04:02:29.324Z,411.00
2023-05-10T04:03:29.389Z,412.00
2023-05-10T04:04:29.303Z,412.00
2023-05-10T04:05:29.360Z,413.00
2023-05-10T04:06:29.493Z,415.00
2023-05-10T04:07:29.319Z,414.00
2023-05-10T04:08:29.324Z,414.00
2023-05-10T04:09:29.329Z,414.00
2023-05-10T04:10:29.344Z,415.00
2023-05-10T04:11:29.323Z,414.00
2023-05-10T04:12:29.302Z,414.00
2023-05-10T04:13:29.386Z,416.00
2023-05-10T04:14:29.323Z,418.00
2023-05-10T04:15:29.336Z,421.00
2023-05-10T04:16:29.351Z,421.00
2023-05-10T04:17:29.322Z,424.00
2023-05-10T04:18:29.339Z,424.00
2023-05-10T04:19:29.320Z,424.00
2023-05-10T04:20:29.314Z,425.00
2023-05-10T04:21:29.327Z,426.00
2023-05-10T04:22:29.291Z,426.00
2023-05-10T04:23:29.324Z,428.00
2023-05-10T04:24:29.296Z,430.00
2023-05-10T04:25:29.283Z,431.00
2023-05-10T04:26:29.350Z,434.00
2023-05-10T04:27:29.359Z,434.00
2023-05-10T04:28:29.363Z,433.00
2023-05-10T04:29:29.369Z,433.00
2023-05-10T04:30:29.363Z,435.00
2023-05-10T04:31:29.459Z,434.00
2023-05-10T04:32:29.434Z,435.00
2023-05-10T04:33:29.440Z,436.00
2023-05-10T04:34:29.396Z,434.00
2023-05-10T04:35:29.493Z,435.00
2023-05-10T04:36:29.402Z,434.00
2023-05-10T04:37:29.417Z,432.00
2023-05-10T04:38:29.429Z,430.00
2023-05-10T04:39:29.385Z,431.00
2023-05-10T04:40:29.388Z,432.00
2023-05-10T04:41:29.385Z,431.00
2023-05-10T04:42:29.387Z,432.00
2023-05-10T04:43:29.385Z,433.00
2023-05-10T04:44:29.421Z,434.00
2023-05-10T04:45:29.417Z,434.00
2023-05-10T04:46:29.417Z,435.00
2023-05-10T04:47:29.485Z,434.00
2023-05-10T04:48:29.400Z,434.00
2023-05-10T04:49:29.398Z,433.00
2023-05-10T04:50:29.442Z,435.00
2023-05-10T04:51:29.456Z,436.00
2023-05-10T04:52:29.423Z,435.00
2023-05-10T04:53:29.421Z,436.00
2023-05-10T04:54:29.438Z,435.00
2023-05-10T04:55:29.388Z,437.00
2023-05-10T04:56:29.422Z,435.00
2023-05-10T04:57:29.412Z,434.00
2023-05-10T04:58:29.387Z,432.00
2023-05-10T04:59:29.429Z,433.00
2023-05-10T05:00:29.406Z,433.00
2023-05-10T05:01:29.424Z,430.00
2023-05-10T05:02:29.471Z,432.00
2023-05-10T05:03:29.493Z,433.00
2023-05-10T05:04:29.432Z,429.00
2023-05-10T05:05:29.408Z,428.00
2023-05-10T05:06:29.410Z,426.00
2023-05-10T05:07:29.413Z,426.00
2023-05-10T05:08:29.430Z,426.00
2023-05-10T05:09:29.432Z,426.00
2023-05-10T05:10:29.437Z,426.00
2023-05-10T05:11:29.400Z,426.00
2023-05-10T05:12:29.405Z,428.00
2023-05-10T05:13:29.529Z,430.00
2023-05-10T05:14:29.428Z,430.00
2023-05-10T05:15:29.391Z,429.00
2023-05-10T05:16:29.387Z,430.00
2023-05-10T05:17:29.388Z,431.00
2023-05-10T05:18:29.391Z,431.00
2023-05-10T05:19:29.392Z,432.00
2023-05-10T05:20:29.366Z,432.00
2023-05-10T05:21:29.365Z,432.00
2023-05-10T05:22:29.453Z,429.00
2023-05-10T05:23:29.399Z,430.00
2023-05-10T05:24:29.355Z,433.00
2023-05-10T05:25:29.389Z,434.00
2023-05-10T05:26:29.381Z,435.00
2023-05-10T05:27:29.393Z,434.00
2023-05-10T05:28:29.397Z,435.00
2023-05-10T05:29:29.415Z,433.00
2023-05-10T05:30:29.393Z,432.00
2023-05-10T05:31:29.354Z,433.00
2023-05-10T05:32:29.415Z,434.00
2023-05-10T05:33:29.352Z,433.00
2023-05-10T05:34:29.403Z,432.00
2023-05-10T05:35:29.402Z,439.00
2023-05-10T05:36:29.372Z,498.00
2023-05-10T05:37:29.415Z,491.00
2023-05-10T05:38:29.428Z,490.00
2023-05-10T05:39:29.392Z,512.00
2023-05-10T05:40:29.379Z,569.00
2023-05-10T05:41:29.378Z,551.00
2023-05-10T05:42:29.402Z,539.00
2023-05-10T05:43:29.390Z,548.00
2023-05-10T05:44:29.401Z,564.00
2023-05-10T05:45:29.559Z,557.00
2023-05-10T05:46:29.474Z,722.00
2023-05-10T05:47:29.516Z,630.00
2023-05-10T05:48:29.503Z,646.00
2023-05-10T05:49:29.828Z,607.00
2023-05-10T05:50:29.757Z,615.00
2023-05-10T05:51:29.526Z,618.00
2023-05-10T05:52:29.520Z,621.00
2023-05-10T05:53:29.526Z,626.00
2023-05-10T05:54:29.577Z,630.00
2023-05-10T05:55:29.582Z,633.00
2023-05-10T05:56:29.587Z,638.00
2023-05-10T05:57:29.598Z,638.00
2023-05-10T05:58:29.613Z,637.00
2023-05-10T05:59:29.600Z,638.00
2023-05-10T06:00:29.578Z,638.00
2023-05-10T06:01:29.717Z,640.00
2023-05-10T06:02:29.708Z,641.00
2023-05-10T06:03:29.711Z,647.00
2023-05-10T06:04:29.829Z,654.00
2023-05-10T06:05:29.615Z,653.00
2023-05-10T06:06:29.796Z,650.00
2023-05-10T06:07:30.246Z,647.00
2023-05-10T06:08:29.640Z,646.00
2023-05-10T06:09:29.770Z,644.00
2023-05-10T06:10:29.652Z,646.00
2023-05-10T06:11:29.792Z,649.00
2023-05-10T06:12:29.605Z,653.00
2023-05-10T06:13:29.665Z,669.00
2023-05-10T06:14:29.567Z,663.00
2023-05-10T06:15:29.574Z,658.00
2023-05-10T06:16:29.640Z,654.00
2023-05-10T06:17:29.662Z,651.00
2023-05-10T06:18:29.547Z,652.00
2023-05-10T06:19:29.610Z,660.00
2023-05-10T06:20:29.619Z,667.00
2023-05-10T06:21:29.614Z,666.00
2023-05-10T06:22:29.671Z,661.00
2023-05-10T06:23:29.715Z,660.00
2023-05-10T06:24:29.756Z,659.00
2023-05-10T06:25:29.850Z,659.00
2023-05-10T06:26:29.810Z,656.00
2023-05-10T06:27:29.890Z,653.00
2023-05-10T06:28:30.291Z,652.00
2023-05-10T06:29:29.981Z,653.00
2023-05-10T06:30:30.439Z,655.00
2023-05-10T06:31:30.132Z,652.00
2023-05-10T06:32:30.171Z,652.00
2023-05-10T06:33:30.225Z,651.00
2023-05-10T06:34:30.271Z,651.00
2023-05-10T06:35:30.277Z,651.00
2023-05-10T06:36:30.387Z,653.00
2023-05-10T06:37:30.443Z,652.00
2023-05-10T06:38:30.771Z,659.00
2023-05-10T06:39:30.569Z,669.00
2023-05-10T06:40:30.654Z,700.00
2023-05-10T06:41:30.680Z,714.00
2023-05-10T06:42:30.686Z,721.00
2023-05-10T06:43:30.811Z,728.00
2023-05-10T06:44:30.765Z,741.00
2023-05-10T06:45:30.835Z,748.00
2023-05-10T06:46:30.918Z,747.00
2023-05-10T06:47:30.933Z,743.00
2023-05-10T06:48:31.299Z,743.00
2023-05-10T06:49:30.973Z,741.00
2023-05-10T06:50:31.261Z,743.00
2023-05-10T06:51:31.026Z,741.00
2023-05-10T06:52:31.074Z,739.00
2023-05-10T06:53:31.166Z,738.00
2023-05-10T06:54:31.205Z,738.00
2023-05-10T06:55:31.241Z,735.00
2023-05-10T06:56:31.239Z,727.00
2023-05-10T06:57:32.200Z,720.00
2023-05-10T06:58:31.292Z,713.00
2023-05-10T06:59:31.420Z,710.00
2023-05-10T07:00:31.390Z,707.00
2023-05-10T07:01:31.406Z,703.00
2023-05-10T07:02:31.478Z,704.00
2023-05-10T07:03:31.771Z,701.00
2023-05-10T07:04:31.855Z,703.00
2023-05-10T07:05:31.803Z,701.00
2023-05-10T07:06:33.762Z,700.00
2023-05-10T07:07:31.672Z,699.00
2023-05-10T07:08:31.726Z,699.00
2023-05-10T07:09:31.727Z,702.00
2023-05-10T07:10:31.797Z,702.00
2023-05-10T07:11:31.818Z,700.00
2023-05-10T07:12:31.838Z,697.00
2023-05-10T07:13:31.901Z,694.00
2023-05-10T07:14:31.877Z,695.00
2023-05-10T07:15:32.290Z,693.00
2023-05-10T07:16:31.967Z,690.00
2023-05-10T07:17:32.105Z,685.00
2023-05-10T07:18:32.065Z,684.00
2023-05-10T07:19:32.272Z,684.00
2023-05-10T07:20:32.064Z,682.00
2023-05-10T07:21:32.143Z,682.00
2023-05-10T07:22:32.246Z,682.00
2023-05-10T07:23:32.090Z,681.00
2023-05-10T07:24:32.166Z,679.00
2023-05-10T07:25:32.140Z,681.00
2023-05-10T07:26:32.152Z,683.00
2023-05-10T07:27:32.167Z,684.00
2023-05-10T07:28:32.228Z,684.00
2023-05-10T07:29:32.201Z,692.00
2023-05-10T07:30:32.271Z,701.00
2023-05-10T07:31:32.273Z,700.00
2023-05-10T07:32:32.378Z,695.00
2023-05-10T07:33:32.279Z,695.00
2023-05-10T07:34:32.318Z,700.00
2023-05-10T07:35:32.782Z,708.00
2023-05-10T07:36:32.308Z,712.00
2023-05-10T07:37:32.826Z,717.00
2023-05-10T07:38:32.395Z,710.00
2023-05-10T07:39:32.849Z,714.00
2023-05-10T07:40:32.361Z,714.00
2023-05-10T07:41:33.923Z,719.00
2023-05-10T07:42:32.413Z,723.00
2023-05-10T07:43:32.325Z,730.00
2023-05-10T07:44:32.349Z,733.00
2023-05-10T07:45:32.361Z,735.00
2023-05-10T07:46:32.350Z,736.00
2023-05-10T07:47:32.335Z,742.00
2023-05-10T07:48:32.288Z,746.00
2023-05-10T07:49:32.304Z,746.00
2023-05-10T07:50:32.293Z,749.00
2023-05-10T07:51:32.392Z,750.00
2023-05-10T07:52:32.247Z,758.00
2023-05-10T07:53:32.306Z,762.00
2023-05-10T07:54:32.310Z,763.00
2023-05-10T07:55:32.322Z,765.00
2023-05-10T07:56:32.258Z,820.00
2023-05-10T07:57:32.255Z,801.00
2023-05-10T07:58:32.217Z,782.00
2023-05-10T07:59:32.245Z,778.00
2023-05-10T08:00:32.258Z,776.00
2023-05-10T08:01:32.253Z,780.00
2023-05-10T08:02:32.318Z,779.00
2023-05-10T08:03:32.362Z,783.00
2023-05-10T08:04:32.291Z,781.00
2023-05-10T08:05:33.117Z,782.00
2023-05-10T08:06:32.227Z,783.00
2023-05-10T08:07:32.254Z,784.00
2023-05-10T08:08:33.036Z,786.00
2023-05-10T08:09:32.422Z,785.00
2023-05-10T08:10:32.445Z,787.00
2023-05-10T08:11:33.719Z,793.00
2023-05-10T08:12:32.822Z,799.00
2023-05-10T08:13:32.775Z,801.00
2023-05-10T08:14:32.688Z,803.00
2023-05-10T08:15:32.750Z,806.00
2023-05-10T08:16:32.926Z,809.00
2023-05-10T08:17:32.907Z,814.00
2023-05-10T08:18:33.316Z,814.00
2023-05-10T08:19:32.992Z,815.00
2023-05-10T08:20:33.060Z,816.00
2023-05-10T08:21:33.141Z,827.00
2023-05-10T08:22:33.112Z,810.00
2023-05-10T08:23:33.185Z,805.00
2023-05-10T08:24:33.223Z,805.00
2023-05-10T08:25:33.269Z,798.00
2023-05-10T08:26:33.310Z,793.00
2023-05-10T08:27:33.357Z,783.00
2023-05-10T08:28:33.417Z,773.00
2023-05-10T08:29:46.249Z,738.00
2023-05-10T08:30:34.385Z,719.00
2023-05-10T08:31:33.458Z,702.00
2023-05-10T08:32:33.464Z,698.00
2023-05-10T08:33:33.399Z,696.00
2023-05-10T08:34:33.809Z,695.00
2023-05-10T08:35:33.405Z,693.00
2023-05-10T08:36:33.362Z,694.00
2023-05-10T08:37:33.352Z,674.00
2023-05-10T08:38:33.361Z,666.00
2023-05-10T08:39:33.833Z,661.00
2023-05-10T08:40:33.332Z,660.00
2023-05-10T08:41:33.347Z,658.00
2023-05-10T08:42:33.296Z,658.00
2023-05-10T08:43:33.334Z,665.00
2023-05-10T08:44:33.365Z,676.00
2023-05-10T08:45:33.315Z,691.00
2023-05-10T08:46:33.318Z,729.00
2023-05-10T08:47:33.362Z,735.00
2023-05-10T08:48:33.280Z,737.00
2023-05-10T08:49:33.340Z,739.00
2023-05-10T08:50:33.299Z,748.00
2023-05-10T08:51:33.311Z,766.00
2023-05-10T08:52:33.314Z,780.00
2023-05-10T08:53:33.310Z,796.00
2023-05-10T08:54:33.346Z,818.00
2023-05-10T08:55:33.380Z,837.00
2023-05-10T08:56:33.446Z,841.00
2023-05-10T08:57:33.873Z,856.00
2023-05-10T08:58:33.515Z,870.00
2023-05-10T08:59:33.605Z,874.00
2023-05-10T09:00:33.771Z,879.00
2023-05-10T09:01:33.725Z,882.00
2023-05-10T09:02:33.819Z,891.00
2023-05-10T09:03:33.862Z,900.00
2023-05-10T09:04:33.995Z,907.00
2023-05-10T09:05:33.969Z,913.00
2023-05-10T09:06:34.032Z,915.00
2023-05-10T09:07:34.822Z,913.00
2023-05-10T09:08:34.143Z,912.00
2023-05-10T09:09:34.203Z,913.00
2023-05-10T09:10:34.267Z,914.00
2023-05-10T09:11:34.302Z,917.00
2023-05-10T09:12:34.373Z,919.00
2023-05-10T09:13:34.401Z,922.00
2023-05-10T09:14:34.488Z,924.00
2023-05-10T09:15:34.556Z,924.00
2023-05-10T09:16:34.657Z,924.00
2023-05-10T09:17:34.695Z,925.00
2023-05-10T09:18:34.837Z,927.00
2023-05-10T09:19:34.758Z,928.00
2023-05-10T09:20:34.851Z,932.00
2023-05-10T09:21:35.327Z,943.00
2023-05-10T09:22:34.964Z,952.00
2023-05-10T09:23:34.996Z,959.00
2023-05-10T09:24:35.089Z,959.00
2023-05-10T09:25:35.121Z,961.00
2023-05-10T09:26:35.316Z,967.00
2023-05-10T09:27:35.247Z,975.00
2023-05-10T09:28:35.316Z,977.00
2023-05-10T09:29:35.358Z,977.00
2023-05-10T09:30:35.405Z,978.00
2023-05-10T09:31:35.423Z,985.00
2023-05-10T09:32:35.488Z,985.00
2023-05-10T09:33:35.538Z,912.00
2023-05-10T09:34:35.614Z,833.00
2023-05-10T09:35:35.615Z,781.00
2023-05-10T09:36:35.620Z,701.00
2023-05-10T09:37:35.676Z,715.00
2023-05-10T09:38:35.817Z,727.00
2023-05-10T09:39:35.683Z,728.00
2023-05-10T09:40:35.705Z,727.00
2023-05-10T09:41:35.714Z,729.00
2023-05-10T09:42:35.718Z,735.00
2023-05-10T09:43:35.817Z,737.00
2023-05-10T09:44:35.753Z,737.00
2023-05-10T09:45:38.138Z,739.00
2023-05-10T09:46:36.004Z,740.00
2023-05-10T09:47:36.089Z,738.00
2023-05-10T09:48:35.977Z,738.00
2023-05-10T09:49:36.030Z,736.00
2023-05-10T09:50:36.016Z,734.00
2023-05-10T09:51:36.886Z,737.00
2023-05-10T09:52:36.011Z,738.00
2023-05-10T09:53:36.139Z,738.00
2023-05-10T09:54:36.882Z,734.00
2023-05-10T09:55:36.198Z,732.00
2023-05-10T09:56:36.255Z,730.00
2023-05-10T09:57:36.335Z,727.00
2023-05-10T09:58:36.440Z,728.00
2023-05-10T09:59:36.488Z,724.00
2023-05-10T10:00:36.549Z,723.00
2023-05-10T10:01:36.583Z,724.00
2023-05-10T10:02:36.846Z,722.00
2023-05-10T10:03:36.665Z,721.00
2023-05-10T10:04:36.766Z,719.00
2023-05-10T10:05:36.811Z,720.00
2023-05-10T10:06:36.876Z,721.00
2023-05-10T10:07:36.931Z,720.00
2023-05-10T10:08:36.958Z,719.00
2023-05-10T10:09:37.021Z,718.00
2023-05-10T10:10:37.120Z,717.00
2023-05-10T10:11:37.141Z,716.00
2023-05-10T10:12:37.201Z,716.00
2023-05-10T10:13:37.273Z,716.00
2023-05-10T10:14:37.307Z,714.00
2023-05-10T10:15:37.915Z,711.00
2023-05-10T10:16:41.427Z,708.00
2023-05-10T10:17:38.472Z,706.00
2023-05-10T10:18:37.917Z,702.00
2023-05-10T10:19:38.388Z,700.00
2023-05-10T10:20:37.415Z,699.00
2023-05-10T10:21:37.353Z,702.00
2023-05-10T10:22:37.861Z,704.00
2023-05-10T10:23:37.349Z,703.00
2023-05-10T10:24:37.376Z,705.00
2023-05-10T10:25:37.397Z,709.00
2023-05-10T10:26:37.861Z,715.00
2023-05-10T10:27:37.472Z,718.00
2023-05-10T10:28:37.503Z,727.00
2023-05-10T10:29:37.513Z,732.00
2023-05-10T10:30:37.589Z,732.00
2023-05-10T10:31:37.810Z,736.00
2023-05-10T10:32:37.653Z,744.00
2023-05-10T10:33:37.674Z,751.00
2023-05-10T10:34:37.744Z,764.00
2023-05-10T10:35:37.858Z,768.00
2023-05-10T10:36:37.818Z,786.00
2023-05-10T10:37:37.885Z,802.00
2023-05-10T10:38:37.869Z,811.00
2023-05-10T10:39:38.043Z,814.00
2023-05-10T10:40:38.402Z,812.00
2023-05-10T10:41:38.391Z,814.00
2023-05-10T10:42:38.377Z,811.00
2023-05-10T10:43:38.041Z,810.00
2023-05-10T10:44:38.333Z,811.00
2023-05-10T10:45:38.493Z,809.00
2023-05-10T10:46:38.162Z,812.00
2023-05-10T10:47:38.206Z,806.00
2023-05-10T10:48:38.142Z,806.00
2023-05-10T10:49:38.138Z,807.00
2023-05-10T10:50:38.212Z,810.00
2023-05-10T10:51:38.196Z,814.00
2023-05-10T10:52:38.218Z,813.00
2023-05-10T10:53:38.227Z,808.00
2023-05-10T10:54:38.262Z,803.00
2023-05-10T10:55:38.291Z,804.00
2023-05-10T10:56:38.361Z,804.00
2023-05-10T10:57:38.300Z,800.00
2023-05-10T10:58:38.317Z,798.00
2023-05-10T10:59:38.322Z,796.00
2023-05-10T11:00:38.451Z,797.00
2023-05-10T11:01:38.539Z,796.00
2023-05-10T11:02:38.432Z,796.00
2023-05-10T11:03:38.428Z,800.00
2023-05-10T11:04:38.497Z,797.00
2023-05-10T11:05:38.475Z,792.00
2023-05-10T11:06:38.454Z,791.00
2023-05-10T11:07:38.492Z,793.00
2023-05-10T11:08:38.869Z,794.00
2023-05-10T11:09:38.499Z,792.00
2023-05-10T11:10:38.530Z,788.00
2023-05-10T11:11:38.889Z,786.00
2023-05-10T11:12:38.918Z,782.00
2023-05-10T11:13:38.531Z,782.00
2023-05-10T11:14:38.535Z,781.00
2023-05-10T11:15:38.894Z,788.00
2023-05-10T11:16:38.733Z,843.00
2023-05-10T11:17:38.578Z,838.00
2023-05-10T11:18:38.600Z,829.00
2023-05-10T11:19:38.564Z,784.00
2023-05-10T11:20:38.584Z,745.00
2023-05-10T11:21:38.578Z,716.00
2023-05-10T11:22:38.601Z,698.00
2023-05-10T11:23:38.618Z,684.00
2023-05-10T11:24:38.643Z,671.00
2023-05-10T11:25:38.659Z,645.00
2023-05-10T11:26:38.736Z,630.00
2023-05-10T11:27:38.746Z,620.00
2023-05-10T11:28:38.778Z,610.00
2023-05-10T11:29:38.798Z,574.00
2023-05-10T11:30:38.880Z,568.00
2023-05-10T11:31:38.875Z,560.00
2023-05-10T11:32:39.002Z,555.00
2023-05-10T11:33:38.984Z,547.00
2023-05-10T11:34:39.045Z,539.00
2023-05-10T11:35:41.030Z,534.00
2023-05-10T11:36:39.088Z,525.00
2023-05-10T11:37:39.077Z,517.00
2023-05-10T11:38:39.046Z,514.00
2023-05-10T11:39:39.085Z,508.00
2023-05-10T11:40:39.037Z,503.00
2023-05-10T11:41:39.658Z,497.00
2023-05-10T11:42:39.076Z,493.00
2023-05-10T11:43:39.037Z,488.00
2023-05-10T11:44:38.993Z,484.00
2023-05-10T11:45:39.019Z,480.00
2023-05-10T11:46:39.091Z,478.00
2023-05-10T11:47:40.800Z,477.00
2023-05-10T11:48:38.989Z,473.00
2023-05-10T11:49:39.002Z,467.00
2023-05-10T11:50:39.001Z,464.00
2023-05-10T11:51:38.970Z,462.00
2023-05-10T11:52:38.955Z,461.00
2023-05-10T11:53:39.002Z,459.00
2023-05-10T11:54:38.966Z,458.00
2023-05-10T11:55:38.914Z,454.00
2023-05-10T11:56:38.940Z,452.00
2023-05-10T11:57:38.900Z,450.00
2023-05-10T11:58:38.923Z,448.00
2023-05-10T11:59:39.865Z,446.00
2023-05-10T12:00:38.918Z,445.00
2023-05-10T12:01:38.870Z,442.00
2023-05-10T12:02:38.978Z,437.00
2023-05-10T12:03:39.658Z,436.00
2023-05-10T12:04:38.908Z,437.00
2023-05-10T12:05:40.566Z,439.00
2023-05-10T12:06:39.158Z,468.00
2023-05-10T12:07:39.106Z,568.00
2023-05-10T12:08:39.129Z,566.00
2023-05-10T12:09:43.815Z,568.00
2023-05-10T12:10:40.208Z,586.00
2023-05-10T12:11:40.546Z,621.00
2023-05-10T12:12:39.116Z,670.00
2023-05-10T12:13:39.135Z,700.00
2023-05-10T12:14:39.149Z,700.00
2023-05-10T12:15:39.154Z,711.00
2023-05-10T12:16:39.143Z,722.00
2023-05-10T12:17:40.238Z,733.00
2023-05-10T12:18:39.124Z,745.00
2023-05-10T12:19:39.055Z,757.00
2023-05-10T12:20:39.087Z,768.00
2023-05-10T12:21:39.098Z,776.00
2023-05-10T12:22:39.060Z,784.00
2023-05-10T12:23:39.110Z,798.00
2023-05-10T12:24:39.224Z,807.00
2023-05-10T12:25:39.232Z,814.00
2023-05-10T12:26:39.397Z,815.00
2023-05-10T12:27:39.355Z,816.00
2023-05-10T12:28:39.438Z,813.00